Monument Lake Park, Colorado
Current Conditions -  °F | °C
As of 8:53 PM on Tuesday 27 Jan 2015 (Local Time) from KRTN Reporting Station
Clear Clear  
Wind Chill: 34°   Ceiling: Unl
Heat Index: 38°   Visibility: 10mi
Dew Point: 30°   Wind: 5mph
Humidity: 73%   Direction: 330°NNW
Pressure: 30.15"   Gusts: NA
Location:  37.1566°N, 104.956°W
Report Text: KRTN 280353Z AUTO 33004KT 10SM CLR 03/M01 A3015 RMK AO2 SLP199 T00331011
Loading
Personal Weather Stations






























Interactive Weather Map New forecast layout! Learn more

10-Day Weather Forecast

Advertisements
Track Severe Weather on mobile